Calder, Idaho
Current Conditions -  °F | °C
As of 4:53 AM on Wednesday 26 Nov 2014 (Local Time) from KMLP Reporting Station
Freezing Rain Freezing Rain  
Wind Chill: 27°   Ceiling: 300
Heat Index: 34°   Visibility: 0.75mi
Dew Point: 31°   Wind: 8mph
Humidity: 89%   Direction: 290°WNW
Pressure: 30.07"   Gusts: NA
Location:  47.28°N, 116.19°W
Report Text: KMLP 261253Z AUTO 29007KT 250V010 3/4SM -FZRA BR VV003 01/M01 A3007 RMK AO2 SLP161 P0002 T00111006
Loading
Personal Weather Stations






























Interactive Weather Map New forecast layout! Learn more

10-Day Weather Forecast

Advertisements
Track Severe Weather on mobile